Phoenix Cross — MRBQ7 — position and weather

sailwx.info

Track history (hours):
 
Tides and Currents Weather Stations Pressure Air Temp Water Temp Dewpoint Dewpoint Depression Visibility Wind Speed Wind Dir Waves Ship Positions

Phoenix Cross

Last reported at 2017-Feb-17 14:33 UTC. Time now 2017-Feb-21 17:20 UTC.
Position N 54°57' W 001°19'.

Length 30 m; draft 5 m.

Type: Tug. MMSI: 235067452.

Date/timePositionNaut miles runAvg speedWind from/ knotsBaromVisibWave heightAir tempDewpointWater temp
2017-Feb-17 14:33N 54°57' W 001°19'6 5.7
2017-Feb-17 13:33N 54°59' W 001°28'2 1.7
2017-Feb-17 12:33N 55°00' W 001°26'2 1.6
2017-Feb-17 11:33N 54°59' W 001°27'0 0.0
2017-Feb-17 10:33N 54°59' W 001°27'0 0.0
2017-Feb-17 09:24N 54°59' W 001°27'0 0.0
2017-Feb-17 08:32N 54°59' W 001°27'0 0.2
2017-Feb-17 07:33N 54°59' W 001°27'2 0.2
2017-Feb-16 21:33N 54°59' W 001°31'1 0.4
2017-Feb-16 18:33N 54°59' W 001°29'1 0.6
2017-Feb-16 17:30N 54°59' W 001°28'0 0.2
2017-Feb-16 15:21N 54°59' W 001°27'0 0.2
2017-Feb-16 12:25N 54°59' W 001°28'0 0.1
2017-Feb-16 11:33N 54°59' W 001°28'2 2.2
2017-Feb-16 10:33N 55°01' W 001°25'4 0.3
2017-Feb-15 20:13N 54°59' W 001°31'2 0.3
2017-Feb-15 14:12N 54°59' W 001°28'4 5.7
2017-Feb-15 13:34N 55°00' W 001°22'  
2017-Feb-11 11:31N 54°59' W 001°21'5 0.7
2017-Feb-11 04:17N 54°59' W 001°29'1 1.2
2017-Feb-11 03:32N 54°59' W 001°27'2 0.2
2017-Feb-10 16:05N 54°59' W 001°31'2 2.8
2017-Feb-10 15:20N 54°59' W 001°27'2 2.6
2017-Feb-10 14:31N 54°59' W 001°31'0 0.0
2017-Feb-10 12:24N 54°59' W 001°31'3 3.3
2017-Feb-10 11:27N 55°01' W 001°26'7 8.0
2017-Feb-10 10:33N 54°55' W 001°17'1 0.1
2017-Feb-09 14:08N 54°56' W 001°18'610.1
2017-Feb-09 13:32N 55°01' W 001°26'3 3.0
2017-Feb-09 12:27N 54°59' W 001°31'0 0.0
2017-Feb-09 10:28N 54°59' W 001°31'0 0.0
2017-Feb-09 03:30N 54°59' W 001°31'0 0.0
2017-Feb-09 02:21N 54°59' W 001°31'  
Track history (hours):
 
Tides and Currents Weather Stations Pressure Air Temp Water Temp Dewpoint Dewpoint Depression Visibility Wind Speed Wind Dir Waves Ship Positions

Phoenix Cross

Last reported at 2017-Feb-17 14:33 UTC. Time now 2017-Feb-21 17:20 UTC.
Position N 54°57' W 001°19'.

Length 30 m; draft 5 m.

Type: Tug. MMSI: 235067452.

Date/timePositionNaut miles runAvg speedWind from/ knotsBaromVisibWave heightAir tempDewpointWater temp
2017-Feb-17 14:33N 54°57' W 001°19'6 5.7
2017-Feb-17 13:33N 54°59' W 001°28'2 1.7
2017-Feb-17 12:33N 55°00' W 001°26'2 1.6
2017-Feb-17 11:33N 54°59' W 001°27'0 0.0
2017-Feb-17 10:33N 54°59' W 001°27'0 0.0
2017-Feb-17 09:24N 54°59' W 001°27'0 0.0
2017-Feb-17 08:32N 54°59' W 001°27'0 0.2
2017-Feb-17 07:33N 54°59' W 001°27'2 0.2
2017-Feb-16 21:33N 54°59' W 001°31'1 0.4
2017-Feb-16 18:33N 54°59' W 001°29'1 0.6
2017-Feb-16 17:30N 54°59' W 001°28'0 0.2
2017-Feb-16 15:21N 54°59' W 001°27'0 0.2
2017-Feb-16 12:25N 54°59' W 001°28'0 0.1
2017-Feb-16 11:33N 54°59' W 001°28'2 2.2
2017-Feb-16 10:33N 55°01' W 001°25'4 0.3
2017-Feb-15 20:13N 54°59' W 001°31'2 0.3
2017-Feb-15 14:12N 54°59' W 001°28'4 5.7
2017-Feb-15 13:34N 55°00' W 001°22'  
2017-Feb-11 11:31N 54°59' W 001°21'5 0.7
2017-Feb-11 04:17N 54°59' W 001°29'1 1.2
2017-Feb-11 03:32N 54°59' W 001°27'2 0.2
2017-Feb-10 16:05N 54°59' W 001°31'2 2.8
2017-Feb-10 15:20N 54°59' W 001°27'2 2.6
2017-Feb-10 14:31N 54°59' W 001°31'0 0.0
2017-Feb-10 12:24N 54°59' W 001°31'3 3.3
2017-Feb-10 11:27N 55°01' W 001°26'7 8.0
2017-Feb-10 10:33N 54°55' W 001°17'1 0.1
2017-Feb-09 14:08N 54°56' W 001°18'610.1
2017-Feb-09 13:32N 55°01' W 001°26'3 3.0
2017-Feb-09 12:27N 54°59' W 001°31'0 0.0
2017-Feb-09 10:28N 54°59' W 001°31'0 0.0
2017-Feb-09 03:30N 54°59' W 001°31'0 0.0
2017-Feb-09 02:21N 54°59' W 001°31'  

Dump ship's entire track history